createdAt,value
2024-04-25T00:00:09.719Z,7.20
2024-04-25T00:02:36.592Z,7.20
2024-04-25T00:05:03.444Z,7.18
2024-04-25T00:07:29.970Z,7.19
2024-04-25T00:09:56.431Z,7.17
2024-04-25T00:12:23.354Z,7.13
2024-04-25T00:14:49.856Z,7.13
2024-04-25T00:17:17.947Z,7.10
2024-04-25T00:19:44.808Z,7.07
2024-04-25T00:22:11.431Z,7.07
2024-04-25T00:24:38.096Z,7.11
2024-04-25T00:27:04.803Z,7.10
2024-04-25T00:29:31.334Z,7.11
2024-04-25T00:31:58.377Z,7.08
2024-04-25T00:34:24.919Z,7.08
2024-04-25T00:36:51.474Z,7.11
2024-04-25T00:39:17.976Z,7.15
2024-04-25T00:41:44.580Z,7.14
2024-04-25T00:44:11.104Z,7.21
2024-04-25T00:46:40.468Z,7.17
2024-04-25T00:49:10.561Z,7.23
2024-04-25T00:51:38.615Z,7.22
2024-04-25T00:54:05.540Z,7.18
2024-04-25T00:56:33.497Z,7.18
2024-04-25T00:59:02.343Z,7.19
2024-04-25T01:01:30.895Z,7.16
2024-04-25T01:04:01.664Z,7.14
2024-04-25T01:06:33.855Z,7.19
2024-04-25T01:09:01.226Z,7.13
2024-04-25T01:11:28.957Z,7.12
2024-04-25T01:13:56.015Z,6.99
2024-04-25T01:16:22.503Z,6.90
2024-04-25T01:18:49.079Z,6.92
2024-04-25T01:21:15.680Z,6.93
2024-04-25T01:23:44.895Z,6.92
2024-04-25T01:26:12.831Z,6.94
2024-04-25T01:28:41.298Z,6.97
2024-04-25T01:31:08.654Z,6.81
2024-04-25T01:33:37.942Z,6.82
2024-04-25T01:36:04.851Z,6.82
2024-04-25T01:38:31.341Z,6.81
2024-04-25T01:40:57.807Z,6.83
2024-04-25T01:43:27.929Z,6.87
2024-04-25T01:45:54.414Z,6.86
2024-04-25T01:48:20.994Z,6.84
2024-04-25T01:51:16.576Z,6.80
2024-04-25T01:53:43.274Z,6.63
2024-04-25T01:56:10.091Z,6.60
2024-04-25T01:58:36.608Z,6.66
2024-04-25T02:01:03.303Z,6.57
2024-04-25T02:03:30.037Z,6.51
2024-04-25T02:05:56.545Z,6.49
2024-04-25T02:08:23.402Z,6.50
2024-04-25T02:10:51.512Z,6.48
2024-04-25T02:13:18.455Z,6.46
2024-04-25T02:15:45.107Z,6.45
2024-04-25T02:18:11.790Z,6.44
2024-04-25T02:20:57.084Z,6.47
2024-04-25T02:23:42.238Z,6.46
2024-04-25T02:26:10.561Z,6.46
2024-04-25T02:28:37.977Z,6.40
2024-04-25T02:31:04.601Z,6.33
2024-04-25T02:33:31.236Z,6.32
2024-04-25T02:35:58.042Z,6.32
2024-04-25T02:38:24.566Z,6.30
2024-04-25T02:40:51.053Z,6.33
2024-04-25T02:43:17.614Z,6.29
2024-04-25T02:45:44.461Z,6.34
2024-04-25T02:48:11.067Z,6.26
2024-04-25T02:50:37.888Z,6.25
2024-04-25T02:53:04.702Z,6.24
2024-04-25T02:55:33.316Z,6.23
2024-04-25T02:58:00.915Z,6.26
2024-04-25T03:00:27.388Z,6.25
2024-04-25T03:02:54.025Z,6.24
2024-04-25T03:05:20.707Z,6.30
2024-04-25T03:07:47.204Z,6.31
2024-04-25T03:10:13.668Z,6.26
2024-04-25T03:12:40.348Z,6.28
2024-04-25T03:15:07.058Z,6.28
2024-04-25T03:17:33.709Z,6.31
2024-04-25T03:20:01.525Z,6.31
2024-04-25T03:22:28.046Z,6.35
2024-04-25T03:24:54.507Z,6.33
2024-04-25T03:27:21.030Z,6.35
2024-04-25T03:29:47.519Z,6.33
2024-04-25T03:32:14.090Z,6.35
2024-04-25T03:34:40.912Z,6.37
2024-04-25T03:37:07.432Z,6.37
2024-04-25T03:39:33.966Z,6.38
2024-04-25T03:42:00.566Z,6.39
2024-04-25T03:44:27.552Z,6.41
2024-04-25T03:46:54.084Z,6.44
2024-04-25T03:49:20.631Z,6.45
2024-04-25T03:51:47.150Z,6.46
2024-04-25T03:54:14.636Z,6.48
2024-04-25T03:56:41.341Z,6.44
2024-04-25T03:59:07.984Z,6.36
2024-04-25T04:01:34.552Z,6.44
2024-04-25T04:04:01.199Z,6.40
2024-04-25T04:06:27.724Z,6.40
2024-04-25T04:08:54.343Z,6.38
2024-04-25T04:11:20.834Z,6.38
2024-04-25T04:13:47.416Z,6.39
2024-04-25T04:16:14.514Z,6.30
2024-04-25T04:18:42.328Z,6.34
2024-04-25T04:21:10.596Z,6.33
2024-04-25T04:23:39.266Z,6.36
2024-04-25T04:26:05.782Z,6.32
2024-04-25T04:28:32.301Z,6.28
2024-04-25T04:30:58.896Z,6.30
2024-04-25T04:33:26.107Z,6.29
2024-04-25T04:35:53.044Z,6.33
2024-04-25T04:38:19.591Z,6.34
2024-04-25T04:40:46.195Z,6.29
2024-04-25T04:43:12.782Z,6.27
2024-04-25T04:45:42.013Z,6.25
2024-04-25T04:48:15.772Z,6.25
2024-04-25T04:50:46.305Z,6.32
2024-04-25T04:53:12.924Z,6.30
2024-04-25T04:55:42.030Z,6.35
2024-04-25T04:58:09.716Z,6.31
2024-04-25T05:00:36.601Z,6.31
2024-04-25T05:03:03.374Z,6.31
2024-04-25T05:05:30.219Z,6.32
2024-04-25T05:08:00.315Z,6.29
2024-04-25T05:10:27.465Z,6.25
2024-04-25T05:12:55.674Z,6.34
2024-04-25T05:15:22.240Z,6.35
2024-04-25T05:17:48.967Z,6.39
2024-04-25T05:20:15.824Z,6.41
2024-04-25T05:22:42.445Z,6.37
2024-04-25T05:25:08.966Z,6.41
2024-04-25T05:27:37.919Z,6.46
2024-04-25T05:30:05.587Z,6.43
2024-04-25T05:32:32.421Z,6.48
2024-04-25T05:35:02.112Z,6.44
2024-04-25T05:37:30.570Z,6.54
2024-04-25T05:39:57.097Z,6.52
2024-04-25T05:42:47.392Z,6.52
2024-04-25T05:45:13.975Z,6.58
2024-04-25T05:47:40.704Z,6.59
2024-04-25T05:50:09.536Z,6.70
2024-04-25T05:52:36.575Z,6.74
2024-04-25T05:55:03.658Z,6.74
2024-04-25T05:57:30.628Z,6.74
2024-04-25T05:59:57.183Z,6.72
2024-04-25T06:02:26.053Z,6.71
2024-04-25T06:04:56.273Z,6.86
2024-04-25T06:07:22.757Z,6.87
2024-04-25T06:09:50.056Z,6.93
2024-04-25T06:12:16.883Z,7.02
2024-04-25T06:14:43.743Z,7.07
2024-04-25T06:17:12.450Z,7.12
2024-04-25T06:19:39.429Z,7.09
2024-04-25T06:22:05.995Z,7.07
2024-04-25T06:24:32.532Z,6.91
2024-04-25T06:26:59.193Z,6.95
2024-04-25T06:29:25.799Z,7.06
2024-04-25T06:31:52.409Z,7.07
2024-04-25T06:34:18.970Z,7.09
2024-04-25T06:36:48.183Z,7.07
2024-04-25T06:39:14.851Z,7.06
2024-04-25T06:41:47.125Z,7.08
2024-04-25T06:44:29.042Z,7.12
2024-04-25T06:46:59.079Z,7.09
2024-04-25T06:49:26.185Z,7.08
2024-04-25T06:51:52.842Z,7.17
2024-04-25T06:54:19.455Z,7.17
2024-04-25T06:56:46.102Z,7.17
2024-04-25T06:59:12.720Z,7.12
2024-04-25T07:01:39.410Z,6.92
2024-04-25T07:04:06.027Z,6.91
2024-04-25T07:06:32.758Z,6.88
2024-04-25T07:09:03.019Z,6.87
2024-04-25T07:11:30.102Z,6.92
2024-04-25T07:13:56.705Z,6.82
2024-04-25T07:16:23.334Z,6.89
2024-04-25T07:18:50.000Z,6.94
2024-04-25T07:21:16.561Z,6.98
2024-04-25T07:23:43.742Z,7.09
2024-04-25T07:26:10.313Z,7.09
2024-04-25T07:28:37.824Z,7.13
2024-04-25T07:31:05.435Z,7.31
2024-04-25T07:33:33.327Z,7.49
2024-04-25T07:36:00.079Z,7.68
2024-04-25T07:38:27.114Z,7.78
2024-04-25T07:40:53.668Z,7.81
2024-04-25T07:43:20.351Z,7.91
2024-04-25T07:45:47.514Z,7.94
2024-04-25T07:48:14.300Z,7.93
2024-04-25T07:50:40.996Z,7.97
2024-04-25T07:53:07.615Z,7.89
2024-04-25T07:55:34.069Z,7.86
2024-04-25T07:58:00.710Z,7.89
2024-04-25T08:00:27.241Z,7.90
2024-04-25T08:02:54.865Z,7.98
2024-04-25T08:05:21.479Z,8.04
2024-04-25T08:07:48.210Z,8.06
2024-04-25T08:10:14.665Z,8.10
2024-04-25T08:12:42.099Z,7.95
2024-04-25T08:15:08.635Z,7.82
2024-04-25T08:17:35.441Z,7.81
2024-04-25T08:20:01.997Z,7.81
2024-04-25T08:22:31.503Z,7.87
2024-04-25T08:24:57.960Z,7.93
2024-04-25T08:27:24.451Z,7.94
2024-04-25T08:29:51.135Z,7.98
2024-04-25T08:32:20.252Z,8.00
2024-04-25T08:34:48.535Z,7.97
2024-04-25T08:37:15.121Z,8.08
2024-04-25T08:39:42.175Z,8.14
2024-04-25T08:42:12.189Z,8.14
2024-04-25T08:44:40.573Z,8.25
2024-04-25T08:47:09.609Z,8.27
2024-04-25T08:49:38.129Z,8.27
2024-04-25T08:52:06.480Z,8.17
2024-04-25T08:54:33.481Z,8.26
2024-04-25T08:57:00.120Z,8.44
2024-04-25T08:59:26.867Z,8.52
2024-04-25T09:01:54.919Z,8.56
2024-04-25T09:04:26.756Z,8.51
2024-04-25T09:06:53.626Z,8.52
2024-04-25T09:09:25.241Z,8.58
2024-04-25T09:11:55.098Z,8.58
2024-04-25T09:14:25.086Z,8.62
2024-04-25T09:16:51.765Z,8.67
2024-04-25T09:19:18.505Z,8.78
2024-04-25T09:21:45.108Z,8.90
2024-04-25T09:24:12.180Z,9.01
2024-04-25T09:26:39.232Z,9.19
2024-04-25T09:29:05.769Z,9.46
2024-04-25T09:31:33.099Z,9.65
2024-04-25T09:33:59.954Z,9.83
2024-04-25T09:36:27.275Z,9.90
2024-04-25T09:38:54.076Z,9.78
2024-04-25T09:41:21.846Z,9.53
2024-04-25T09:43:49.396Z,9.45
2024-04-25T09:46:23.937Z,9.42
2024-04-25T09:48:55.082Z,9.45
2024-04-25T09:51:37.462Z,9.51
2024-04-25T09:54:11.225Z,9.71
2024-04-25T09:56:38.733Z,9.76
2024-04-25T09:59:11.906Z,9.91
2024-04-25T10:01:40.202Z,10.11
2024-04-25T10:04:07.279Z,10.28
2024-04-25T10:06:34.570Z,10.26
2024-04-25T10:09:01.381Z,10.29
2024-04-25T10:11:31.084Z,10.41
2024-04-25T10:13:57.772Z,10.52
2024-04-25T10:16:24.284Z,10.84
2024-04-25T10:18:51.636Z,11.03
2024-04-25T10:21:18.782Z,10.93
2024-04-25T10:23:45.348Z,10.86
2024-04-25T10:26:19.799Z,10.86
2024-04-25T10:29:05.383Z,10.64
2024-04-25T10:31:36.740Z,10.42
2024-04-25T10:34:07.670Z,10.22
2024-04-25T10:36:36.222Z,10.03
2024-04-25T10:39:08.361Z,9.99
2024-04-25T10:41:40.600Z,10.00
2024-04-25T10:44:08.694Z,9.88
2024-04-25T10:46:39.270Z,9.69
2024-04-25T10:49:06.856Z,9.80
2024-04-25T10:51:33.892Z,9.81
2024-04-25T10:54:16.405Z,9.79
2024-04-25T10:56:43.324Z,9.88
2024-04-25T10:59:10.090Z,9.97
2024-04-25T11:01:36.596Z,10.08
2024-04-25T11:04:07.191Z,10.21
2024-04-25T11:06:38.012Z,10.22
2024-04-25T11:09:10.548Z,10.23
2024-04-25T11:11:38.433Z,10.21
2024-04-25T11:14:05.014Z,10.17
2024-04-25T11:16:38.063Z,10.23
2024-04-25T11:19:13.665Z,10.20
2024-04-25T11:21:48.708Z,10.22
2024-04-25T11:24:17.859Z,10.33
2024-04-25T11:26:48.599Z,10.40
2024-04-25T11:29:15.443Z,10.47
2024-04-25T11:31:42.072Z,10.42
2024-04-25T11:34:22.538Z,10.36
2024-04-25T11:37:02.869Z,10.29
2024-04-25T11:39:31.424Z,10.35
2024-04-25T11:42:02.178Z,10.32
2024-04-25T11:44:30.588Z,10.36
2024-04-25T11:46:58.022Z,10.29
2024-04-25T11:49:25.601Z,10.39
2024-04-25T11:51:52.062Z,10.50
2024-04-25T11:54:18.632Z,10.60
2024-04-25T11:56:45.279Z,10.68
2024-04-25T11:59:11.933Z,10.77
2024-04-25T12:01:38.561Z,10.65
2024-04-25T12:04:09.247Z,10.60
2024-04-25T12:06:35.988Z,10.64
2024-04-25T12:09:02.603Z,10.74
2024-04-25T12:11:30.720Z,10.82
2024-04-25T12:13:57.263Z,10.92
2024-04-25T12:16:23.954Z,10.97
2024-04-25T12:18:50.431Z,10.91
2024-04-25T12:21:17.091Z,10.97
2024-04-25T12:23:43.672Z,10.97
2024-04-25T12:26:10.349Z,10.97
2024-04-25T12:28:36.946Z,10.80
2024-04-25T12:31:04.691Z,10.74
2024-04-25T12:33:32.503Z,10.67
2024-04-25T12:35:59.156Z,10.58
2024-04-25T12:38:25.935Z,10.54
2024-04-25T12:40:52.807Z,10.50
2024-04-25T12:43:19.326Z,10.51
2024-04-25T12:45:50.815Z,10.55
2024-04-25T12:48:17.776Z,10.52
2024-04-25T12:50:44.573Z,10.60
2024-04-25T12:53:14.387Z,10.57
2024-04-25T12:55:41.173Z,10.70
2024-04-25T12:58:07.836Z,10.90
2024-04-25T13:00:34.582Z,10.92
2024-04-25T13:03:01.322Z,10.97
2024-04-25T13:05:28.181Z,11.18
2024-04-25T13:07:55.005Z,11.32
2024-04-25T13:10:21.588Z,11.39
2024-04-25T13:12:49.322Z,11.54
2024-04-25T13:15:16.107Z,11.67
2024-04-25T13:17:42.790Z,11.78
2024-04-25T13:20:11.258Z,11.80
2024-04-25T13:22:37.744Z,11.67
2024-04-25T13:25:04.661Z,11.62
2024-04-25T13:27:31.556Z,11.57
2024-04-25T13:29:58.255Z,11.54
2024-04-25T13:32:27.352Z,11.47
2024-04-25T13:34:56.117Z,11.44
2024-04-25T13:37:22.673Z,11.44
2024-04-25T13:39:53.940Z,11.41
2024-04-25T13:42:20.858Z,11.40
2024-04-25T13:44:47.393Z,11.37
2024-04-25T13:47:13.941Z,11.43
2024-04-25T13:49:40.722Z,11.47
2024-04-25T13:52:07.169Z,11.54
2024-04-25T13:54:35.107Z,11.67
2024-04-25T13:57:04.075Z,11.66
2024-04-25T13:59:30.779Z,11.56
2024-04-25T14:01:57.394Z,11.50
2024-04-25T14:04:24.893Z,11.38
2024-04-25T14:06:53.970Z,11.17
2024-04-25T14:09:21.605Z,11.10
2024-04-25T14:11:48.299Z,10.95
2024-04-25T14:14:16.901Z,10.88
2024-04-25T14:16:43.422Z,10.87
2024-04-25T14:19:10.681Z,10.93
2024-04-25T14:21:37.168Z,11.01
2024-04-25T14:24:03.800Z,11.03
2024-04-25T14:26:49.165Z,11.08
2024-04-25T14:29:16.071Z,11.19
2024-04-25T14:31:42.573Z,11.13
2024-04-25T14:34:09.442Z,11.29
2024-04-25T14:36:36.055Z,11.35
2024-04-25T14:39:02.640Z,11.44
2024-04-25T14:41:29.222Z,11.70
2024-04-25T14:43:58.666Z,11.83
2024-04-25T14:46:26.512Z,11.76
2024-04-25T14:48:53.360Z,11.82
2024-04-25T14:51:19.964Z,11.82
2024-04-25T14:53:46.848Z,11.73
2024-04-25T14:56:13.573Z,11.68
2024-04-25T14:58:40.235Z,11.60
2024-04-25T15:01:06.892Z,11.57
2024-04-25T15:03:34.554Z,11.53
2024-04-25T15:06:01.200Z,11.56
2024-04-25T15:08:27.724Z,11.66
2024-04-25T15:10:54.318Z,11.69
2024-04-25T15:13:21.617Z,11.76
2024-04-25T15:15:49.797Z,11.79
2024-04-25T15:18:17.822Z,11.78
2024-04-25T15:20:44.700Z,11.82
2024-04-25T15:23:11.262Z,11.88
2024-04-25T15:25:37.890Z,11.80
2024-04-25T15:28:04.621Z,11.66
2024-04-25T15:30:32.180Z,11.67
2024-04-25T15:32:59.011Z,11.58
2024-04-25T15:35:25.604Z,11.62
2024-04-25T15:37:52.187Z,11.46
2024-04-25T15:40:18.766Z,11.48
2024-04-25T15:42:45.568Z,11.56
2024-04-25T15:45:12.432Z,11.70
2024-04-25T15:47:39.070Z,11.83
2024-04-25T15:50:05.919Z,12.01
2024-04-25T15:52:35.146Z,11.99
2024-04-25T15:55:02.765Z,11.81
2024-04-25T15:57:29.337Z,11.74
2024-04-25T15:59:55.913Z,11.86
2024-04-25T16:02:23.062Z,11.89
2024-04-25T16:04:51.914Z,11.80
2024-04-25T16:07:18.874Z,11.83
2024-04-25T16:09:48.494Z,11.70
2024-04-25T16:12:15.065Z,11.73
2024-04-25T16:14:41.946Z,11.62
2024-04-25T16:17:08.732Z,11.62
2024-04-25T16:19:36.568Z,11.62
2024-04-25T16:22:03.229Z,11.52
2024-04-25T16:24:29.943Z,11.51
2024-04-25T16:26:56.517Z,11.47
2024-04-25T16:29:25.853Z,11.33
2024-04-25T16:31:53.596Z,11.31
2024-04-25T16:34:20.394Z,11.19
2024-04-25T16:36:46.939Z,11.20
2024-04-25T16:39:13.553Z,11.21
2024-04-25T16:41:40.117Z,11.20
2024-04-25T16:44:06.775Z,11.18
2024-04-25T16:46:33.464Z,11.14
2024-04-25T16:48:59.925Z,11.15
2024-04-25T16:51:29.722Z,11.20
2024-04-25T16:53:56.553Z,11.22
2024-04-25T16:56:23.056Z,11.22
2024-04-25T16:58:50.435Z,11.18
2024-04-25T17:01:17.813Z,11.21
2024-04-25T17:03:47.588Z,11.23
2024-04-25T17:06:14.879Z,11.28
2024-04-25T17:08:41.514Z,11.29
2024-04-25T17:11:17.354Z,11.36
2024-04-25T17:13:44.275Z,11.36
2024-04-25T17:16:10.918Z,11.38
2024-04-25T17:18:37.736Z,11.24
2024-04-25T17:21:07.555Z,11.25
2024-04-25T17:23:34.202Z,11.28
2024-04-25T17:26:01.914Z,11.22
2024-04-25T17:28:28.556Z,11.23
2024-04-25T17:30:55.052Z,11.26
2024-04-25T17:33:21.721Z,11.28
2024-04-25T17:35:48.512Z,11.29
2024-04-25T17:38:15.056Z,11.25
2024-04-25T17:40:41.778Z,11.20
2024-04-25T17:43:08.382Z,11.19
2024-04-25T17:45:34.908Z,11.21
2024-04-25T17:48:01.883Z,11.20
2024-04-25T17:50:28.650Z,11.26
2024-04-25T17:52:55.156Z,11.28
2024-04-25T17:55:21.694Z,11.23
2024-04-25T17:57:48.366Z,11.25
2024-04-25T18:00:16.403Z,11.25
2024-04-25T18:02:42.983Z,11.19
2024-04-25T18:05:10.559Z,11.15
2024-04-25T18:07:37.285Z,11.13
2024-04-25T18:10:04.313Z,11.11
2024-04-25T18:12:30.914Z,11.07
2024-04-25T18:14:57.411Z,11.01
2024-04-25T18:17:26.206Z,11.03
2024-04-25T18:19:53.692Z,11.06
2024-04-25T18:22:24.757Z,11.07
2024-04-25T18:24:51.833Z,11.09
2024-04-25T18:27:20.191Z,11.08
2024-04-25T18:29:47.017Z,11.07
2024-04-25T18:32:14.030Z,11.00
2024-04-25T18:34:41.167Z,10.99
2024-04-25T18:37:09.611Z,10.98
2024-04-25T18:39:36.462Z,10.90
2024-04-25T18:42:06.276Z,10.90
2024-04-25T18:44:36.784Z,10.91
2024-04-25T18:47:04.319Z,10.96
2024-04-25T18:49:35.491Z,10.94
2024-04-25T18:52:02.531Z,10.89
2024-04-25T18:54:29.242Z,10.89
2024-04-25T18:56:55.946Z,10.91
2024-04-25T18:59:23.221Z,10.95
2024-04-25T19:01:49.924Z,10.90
2024-04-25T19:04:21.137Z,10.88
2024-04-25T19:06:50.793Z,10.83
2024-04-25T19:09:21.453Z,10.79
2024-04-25T19:11:51.370Z,10.82
2024-04-25T19:14:18.102Z,10.86
2024-04-25T19:16:44.677Z,10.85
2024-04-25T19:19:12.093Z,10.87
2024-04-25T19:21:43.837Z,10.88
2024-04-25T19:24:10.918Z,10.78
2024-04-25T19:26:38.005Z,10.73
2024-04-25T19:29:04.766Z,10.73
2024-04-25T19:31:41.201Z,10.69
2024-04-25T19:34:08.514Z,10.73
2024-04-25T19:36:38.561Z,10.77
2024-04-25T19:39:05.727Z,10.77
2024-04-25T19:41:33.593Z,10.78
2024-04-25T19:44:00.145Z,10.75
2024-04-25T19:46:26.724Z,10.76
2024-04-25T19:48:53.330Z,10.76
2024-04-25T19:51:20.295Z,10.72
2024-04-25T19:53:47.099Z,10.69
2024-04-25T19:56:14.843Z,10.63
2024-04-25T19:58:46.350Z,10.62
2024-04-25T20:01:16.371Z,10.64
2024-04-25T20:03:43.892Z,10.62
2024-04-25T20:06:15.202Z,10.63
2024-04-25T20:08:41.786Z,10.65
2024-04-25T20:11:08.542Z,10.66
2024-04-25T20:13:35.239Z,10.58
2024-04-25T20:16:01.859Z,10.62
2024-04-25T20:18:48.092Z,10.61
2024-04-25T20:21:14.585Z,10.55
2024-04-25T20:23:44.621Z,10.51
2024-04-25T20:26:12.843Z,10.51
2024-04-25T20:28:41.346Z,10.46
2024-04-25T20:31:13.461Z,10.37
2024-04-25T20:33:40.023Z,10.36
2024-04-25T20:36:10.408Z,10.33
2024-04-25T20:38:37.661Z,10.33
2024-04-25T20:41:05.237Z,10.28
2024-04-25T20:43:31.697Z,10.22
2024-04-25T20:45:58.418Z,10.20
2024-04-25T20:48:24.995Z,10.21
2024-04-25T20:50:51.666Z,10.24
2024-04-25T20:53:18.427Z,10.17
2024-04-25T20:55:44.915Z,10.11
2024-04-25T20:58:12.073Z,10.10
2024-04-25T21:00:38.683Z,10.18
2024-04-25T21:03:05.659Z,10.12
2024-04-25T21:05:32.620Z,10.03
2024-04-25T21:07:59.145Z,9.99
2024-04-25T21:10:25.712Z,9.95
2024-04-25T21:12:52.640Z,10.02
2024-04-25T21:15:19.177Z,10.06
2024-04-25T21:17:45.773Z,10.05
2024-04-25T21:20:12.434Z,10.01
2024-04-25T21:22:42.107Z,9.96
2024-04-25T21:25:09.250Z,10.02
2024-04-25T21:27:35.765Z,9.95
2024-04-25T21:30:03.092Z,9.90
2024-04-25T21:32:36.608Z,9.84
2024-04-25T21:35:09.956Z,9.78
2024-04-25T21:37:36.520Z,9.80
2024-04-25T21:40:03.156Z,9.79
2024-04-25T21:42:29.675Z,9.78
2024-04-25T21:44:56.273Z,9.75
2024-04-25T21:47:22.893Z,9.80
2024-04-25T21:49:49.576Z,9.81
2024-04-25T21:52:16.079Z,9.86
2024-04-25T21:54:42.658Z,9.84
2024-04-25T21:57:13.710Z,9.82
2024-04-25T21:59:40.362Z,9.77
2024-04-25T22:02:06.924Z,9.83
2024-04-25T22:04:33.392Z,9.79
2024-04-25T22:07:00.038Z,9.82
2024-04-25T22:09:26.642Z,9.84
2024-04-25T22:11:53.305Z,9.81
2024-04-25T22:14:21.201Z,9.80
2024-04-25T22:16:48.100Z,9.73
2024-04-25T22:19:14.662Z,9.66
2024-04-25T22:21:47.440Z,9.61
2024-04-25T22:24:13.914Z,9.64
2024-04-25T22:26:40.473Z,9.64
2024-04-25T22:29:07.167Z,9.60
2024-04-25T22:31:33.835Z,9.51
2024-04-25T22:34:00.494Z,9.58
2024-04-25T22:36:27.219Z,9.59
2024-04-25T22:38:55.484Z,9.52
2024-04-25T22:41:22.232Z,9.51
2024-04-25T22:43:48.947Z,9.48
2024-04-25T22:46:15.560Z,9.44
2024-04-25T22:48:42.381Z,9.46
2024-04-25T22:51:09.370Z,9.52
2024-04-25T22:53:36.783Z,9.61
2024-04-25T22:56:03.670Z,9.67
2024-04-25T22:58:30.206Z,9.63
2024-04-25T23:00:56.757Z,9.58
2024-04-25T23:03:25.601Z,9.53
2024-04-25T23:05:54.018Z,9.48
2024-04-25T23:08:20.589Z,9.45
2024-04-25T23:10:47.063Z,9.45
2024-04-25T23:13:13.716Z,9.49
2024-04-25T23:15:40.231Z,9.51
2024-04-25T23:18:07.012Z,9.43
2024-04-25T23:20:33.748Z,9.38
2024-04-25T23:23:00.402Z,9.29
2024-04-25T23:25:26.864Z,9.31
2024-04-25T23:27:53.546Z,9.30
2024-04-25T23:30:20.738Z,9.32
2024-04-25T23:32:48.326Z,9.32
2024-04-25T23:35:15.126Z,9.35
2024-04-25T23:37:41.693Z,9.29
2024-04-25T23:40:08.388Z,9.30
2024-04-25T23:42:37.562Z,9.22
2024-04-25T23:45:05.396Z,9.26
2024-04-25T23:47:31.974Z,9.28
2024-04-25T23:49:58.644Z,9.21
2024-04-25T23:52:25.180Z,9.24
2024-04-25T23:54:51.740Z,9.22
2024-04-25T23:57:18.481Z,9.14
2024-04-25T23:59:45.100Z,9.13
